Airfield :
LOGIN :

Register | Disclaimer

   EN    FR    IT 

 










Legend :    VFR   Marginal VFR   IFR   Intensive IFR   Very Intensive IFR
Visi :
Ceiling :
>= 8 km
>= 3000ft
5 to 8 km
1000 to 3000 ft
1500m to 5 km
500 to 1000 ft
800 to 1500m
200 to 500 ft
< 800m
< 200 ft
Symbols :   Thunderstorms  Fog  Heavy snow  Heavy precipitations  Wind > 20 kt
SIGMETs :     Misc.  Thunderstorms  Icing  Turbulence  Mountain Waves  Volcanic Ashes







- Airport Elevation : 204 ft
- IATA code : AGF
- Download approach charts


LFBA - Agen

CURRENT METAR :
  • 220900Z AUTO 12003KT 070V170 3700 BR OVC002 15/15 Q1025 BECMG CAVOK

EXPIRED METARs :
  • 220830Z AUTO VRB03KT 0900 R29/1100U FG VV/// 15/15 Q1025 BECMG CAVOK
  • 220800Z AUTO 08003KT 040V130 0400 R29/0650U FG VV/// 14/14 Q1024 BECMG CAVOK
  • 220730Z AUTO 12003KT 070V170 0350 0300 R29/0400N FG VV/// 14/14 Q1024 BECMG CAVOK
  • 220700Z AUTO VRB03KT 0550 R29/0550D FG VV/// 13/13 Q1024 TEMPO BKN005 BECMG 9999 NSW
  • 220630Z AUTO VRB02KT 4200 R29/1300U BR VV/// 13/13 Q1024 TEMPO BKN005 BECMG 9999 NSW

TAF TAF LFBA
Valid from the 22 at 09:00 until the 22 at 18:00 UTC


220800Z 2209/2218 10005KT 9000 BKN009
BECMG 2209/2211 CAVOK
No reported NOTAMs for that airfield.



MET'MAP, your aeronautical weather chart ! - Copyright ORBIFLY December 2007 - Disclaimer

ORBIFLY MET'MAP TEAM :

Programming & Development : Alexandra Zaïnal
Concept & Development : Baudouin d'Aumeries
Co-Development & Prog : Marc-Olivier Méhu
Technical & hardware support : Manuel Goepfert

Contact : metmap@orbifly.com




SOURCES & CREDITS :

   NOAA